sensor_id;sensor_type;location;lat;lon;timestamp;P1;durP1;ratioP1;P2;durP2;ratioP2
60919;SDS011;59039;52.108;19.942;2023-05-07T00:00:13;19.20;;;11.20;;
60919;SDS011;59039;52.108;19.942;2023-05-07T00:02:39;21.20;;;11.90;;
60919;SDS011;59039;52.108;19.942;2023-05-07T00:05:05;21.90;;;11.20;;
60919;SDS011;59039;52.108;19.942;2023-05-07T00:07:30;21.20;;;10.90;;
60919;SDS011;59039;52.108;19.942;2023-05-07T00:09:56;23.20;;;11.80;;
60919;SDS011;59039;52.108;19.942;2023-05-07T00:12:21;17.50;;;9.80;;
60919;SDS011;59039;52.108;19.942;2023-05-07T00:14:46;19.40;;;11.70;;
60919;SDS011;59039;52.108;19.942;2023-05-07T00:17:12;21.80;;;10.10;;
60919;SDS011;59039;52.108;19.942;2023-05-07T00:19:37;20.00;;;10.20;;
60919;SDS011;59039;52.108;19.942;2023-05-07T00:22:02;23.60;;;10.80;;
60919;SDS011;59039;52.108;19.942;2023-05-07T00:24:27;20.30;;;10.20;;
60919;SDS011;59039;52.108;19.942;2023-05-07T00:26:53;20.90;;;9.90;;
60919;SDS011;59039;52.108;19.942;2023-05-07T00:29:18;18.70;;;9.30;;
60919;SDS011;59039;52.108;19.942;2023-05-07T00:31:44;20.30;;;11.30;;
60919;SDS011;59039;52.108;19.942;2023-05-07T00:34:09;24.70;;;11.70;;
60919;SDS011;59039;52.108;19.942;2023-05-07T00:36:34;27.50;;;10.90;;
60919;SDS011;59039;52.108;19.942;2023-05-07T00:39:00;22.40;;;10.90;;
60919;SDS011;59039;52.108;19.942;2023-05-07T00:41:26;17.00;;;9.10;;
60919;SDS011;59039;52.108;19.942;2023-05-07T00:43:51;18.70;;;9.40;;
60919;SDS011;59039;52.108;19.942;2023-05-07T00:46:17;15.20;;;8.60;;
60919;SDS011;59039;52.108;19.942;2023-05-07T00:48:44;16.20;;;8.90;;
60919;SDS011;59039;52.108;19.942;2023-05-07T00:51:10;22.10;;;9.30;;
60919;SDS011;59039;52.108;19.942;2023-05-07T00:53:36;16.40;;;8.20;;
60919;SDS011;59039;52.108;19.942;2023-05-07T00:56:01;20.70;;;10.70;;
60919;SDS011;59039;52.108;19.942;2023-05-07T00:58:26;20.60;;;10.20;;
60919;SDS011;59039;52.108;19.942;2023-05-07T01:00:52;19.00;;;9.30;;
60919;SDS011;59039;52.108;19.942;2023-05-07T01:03:20;18.50;;;9.90;;
60919;SDS011;59039;52.108;19.942;2023-05-07T01:05:45;15.80;;;8.60;;
60919;SDS011;59039;52.108;19.942;2023-05-07T01:08:15;17.80;;;9.30;;
60919;SDS011;59039;52.108;19.942;2023-05-07T01:10:41;18.60;;;10.10;;
60919;SDS011;59039;52.108;19.942;2023-05-07T01:13:07;16.70;;;9.20;;
60919;SDS011;59039;52.108;19.942;2023-05-07T01:15:33;19.90;;;9.20;;
60919;SDS011;59039;52.108;19.942;2023-05-07T01:17:58;12.60;;;8.10;;
60919;SDS011;59039;52.108;19.942;2023-05-07T01:20:24;18.70;;;8.20;;
60919;SDS011;59039;52.108;19.942;2023-05-07T01:22:49;14.40;;;7.60;;
60919;SDS011;59039;52.108;19.942;2023-05-07T01:25:15;14.50;;;7.60;;
60919;SDS011;59039;52.108;19.942;2023-05-07T01:27:41;17.00;;;8.90;;
60919;SDS011;59039;52.108;19.942;2023-05-07T01:30:06;14.50;;;8.50;;
60919;SDS011;59039;52.108;19.942;2023-05-07T01:32:35;14.70;;;7.50;;
60919;SDS011;59039;52.108;19.942;2023-05-07T01:35:05;11.40;;;6.80;;
60919;SDS011;59039;52.108;19.942;2023-05-07T01:37:34;15.90;;;8.60;;
60919;SDS011;59039;52.108;19.942;2023-05-07T01:40:01;16.30;;;8.20;;
60919;SDS011;59039;52.108;19.942;2023-05-07T01:42:27;15.90;;;7.50;;
60919;SDS011;59039;52.108;19.942;2023-05-07T01:44:53;13.00;;;7.40;;
60919;SDS011;59039;52.108;19.942;2023-05-07T01:47:19;17.70;;;8.50;;
60919;SDS011;59039;52.108;19.942;2023-05-07T01:49:46;15.20;;;7.80;;
60919;SDS011;59039;52.108;19.942;2023-05-07T01:52:11;14.10;;;6.80;;
60919;SDS011;59039;52.108;19.942;2023-05-07T01:54:37;13.60;;;7.40;;
60919;SDS011;59039;52.108;19.942;2023-05-07T01:57:03;13.80;;;7.90;;
60919;SDS011;59039;52.108;19.942;2023-05-07T01:59:28;15.70;;;7.80;;
60919;SDS011;59039;52.108;19.942;2023-05-07T02:01:56;15.30;;;7.40;;
60919;SDS011;59039;52.108;19.942;2023-05-07T02:04:22;13.40;;;6.80;;
60919;SDS011;59039;52.108;19.942;2023-05-07T02:06:47;16.70;;;7.90;;
60919;SDS011;59039;52.108;19.942;2023-05-07T02:09:13;12.20;;;7.50;;
60919;SDS011;59039;52.108;19.942;2023-05-07T02:11:38;18.90;;;9.90;;
60919;SDS011;59039;52.108;19.942;2023-05-07T02:14:04;20.10;;;9.70;;
60919;SDS011;59039;52.108;19.942;2023-05-07T02:16:29;15.00;;;8.50;;
60919;SDS011;59039;52.108;19.942;2023-05-07T02:18:54;17.20;;;9.70;;
60919;SDS011;59039;52.108;19.942;2023-05-07T02:21:20;18.90;;;10.40;;
60919;SDS011;59039;52.108;19.942;2023-05-07T02:23:45;17.90;;;9.10;;
60919;SDS011;59039;52.108;19.942;2023-05-07T02:26:11;19.30;;;9.60;;
60919;SDS011;59039;52.108;19.942;2023-05-07T02:28:45;17.40;;;7.30;;
60919;SDS011;59039;52.108;19.942;2023-05-07T02:31:10;16.70;;;8.80;;
60919;SDS011;59039;52.108;19.942;2023-05-07T02:33:36;13.20;;;7.40;;
60919;SDS011;59039;52.108;19.942;2023-05-07T02:36:08;18.40;;;8.00;;
60919;SDS011;59039;52.108;19.942;2023-05-07T02:41:10;14.90;;;7.30;;
60919;SDS011;59039;52.108;19.942;2023-05-07T02:43:38;14.20;;;7.80;;
60919;SDS011;59039;52.108;19.942;2023-05-07T02:46:04;10.40;;;6.50;;
60919;SDS011;59039;52.108;19.942;2023-05-07T02:48:31;13.40;;;6.50;;
60919;SDS011;59039;52.108;19.942;2023-05-07T02:50:56;15.10;;;7.70;;
60919;SDS011;59039;52.108;19.942;2023-05-07T02:53:22;15.30;;;7.80;;
60919;SDS011;59039;52.108;19.942;2023-05-07T02:55:47;11.80;;;6.90;;
60919;SDS011;59039;52.108;19.942;2023-05-07T02:58:13;16.50;;;7.10;;
60919;SDS011;59039;52.108;19.942;2023-05-07T03:00:38;11.80;;;6.50;;
60919;SDS011;59039;52.108;19.942;2023-05-07T03:03:03;15.00;;;8.10;;
60919;SDS011;59039;52.108;19.942;2023-05-07T03:05:29;11.50;;;7.20;;
60919;SDS011;59039;52.108;19.942;2023-05-07T03:07:54;13.70;;;7.10;;
60919;SDS011;59039;52.108;19.942;2023-05-07T03:10:19;10.20;;;7.00;;
60919;SDS011;59039;52.108;19.942;2023-05-07T03:12:45;13.40;;;6.40;;
60919;SDS011;59039;52.108;19.942;2023-05-07T03:15:10;11.40;;;6.50;;
60919;SDS011;59039;52.108;19.942;2023-05-07T03:17:36;13.50;;;6.30;;
60919;SDS011;59039;52.108;19.942;2023-05-07T03:20:01;10.60;;;6.10;;
60919;SDS011;59039;52.108;19.942;2023-05-07T03:22:26;10.30;;;5.90;;
60919;SDS011;59039;52.108;19.942;2023-05-07T03:24:52;11.50;;;6.10;;
60919;SDS011;59039;52.108;19.942;2023-05-07T03:27:17;10.90;;;5.70;;
60919;SDS011;59039;52.108;19.942;2023-05-07T03:29:42;10.70;;;5.90;;
60919;SDS011;59039;52.108;19.942;2023-05-07T03:32:08;11.10;;;6.10;;
60919;SDS011;59039;52.108;19.942;2023-05-07T03:34:33;13.20;;;5.80;;
60919;SDS011;59039;52.108;19.942;2023-05-07T03:36:58;8.20;;;4.70;;
60919;SDS011;59039;52.108;19.942;2023-05-07T03:39:24;9.60;;;5.90;;
60919;SDS011;59039;52.108;19.942;2023-05-07T03:41:49;9.30;;;5.40;;
60919;SDS011;59039;52.108;19.942;2023-05-07T03:44:14;12.10;;;5.80;;
60919;SDS011;59039;52.108;19.942;2023-05-07T03:46:40;9.20;;;5.40;;
60919;SDS011;59039;52.108;19.942;2023-05-07T03:49:05;10.80;;;6.30;;
60919;SDS011;59039;52.108;19.942;2023-05-07T03:51:30;10.40;;;5.70;;
60919;SDS011;59039;52.108;19.942;2023-05-07T03:53:56;12.10;;;6.80;;
60919;SDS011;59039;52.108;19.942;2023-05-07T03:56:21;11.50;;;5.80;;
60919;SDS011;59039;52.108;19.942;2023-05-07T03:58:47;9.60;;;5.50;;
60919;SDS011;59039;52.108;19.942;2023-05-07T04:01:20;9.60;;;5.00;;
60919;SDS011;59039;52.108;19.942;2023-05-07T04:06:10;10.90;;;5.60;;
60919;SDS011;59039;52.108;19.942;2023-05-07T04:08:35;8.20;;;4.50;;
60919;SDS011;59039;52.108;19.942;2023-05-07T04:11:01;10.90;;;4.70;;
60919;SDS011;59039;52.108;19.942;2023-05-07T04:13:26;10.10;;;5.30;;
60919;SDS011;59039;52.108;19.942;2023-05-07T04:15:52;9.60;;;5.10;;
60919;SDS011;59039;52.108;19.942;2023-05-07T04:18:18;10.10;;;6.20;;
60919;SDS011;59039;52.108;19.942;2023-05-07T04:20:44;11.00;;;6.00;;
60919;SDS011;59039;52.108;19.942;2023-05-07T04:23:09;9.30;;;5.70;;
60919;SDS011;59039;52.108;19.942;2023-05-07T04:25:34;7.60;;;4.40;;
60919;SDS011;59039;52.108;19.942;2023-05-07T04:28:00;14.20;;;6.10;;
60919;SDS011;59039;52.108;19.942;2023-05-07T04:30:25;12.40;;;6.10;;
60919;SDS011;59039;52.108;19.942;2023-05-07T04:32:51;12.70;;;6.50;;
60919;SDS011;59039;52.108;19.942;2023-05-07T04:35:17;10.70;;;6.00;;
60919;SDS011;59039;52.108;19.942;2023-05-07T04:37:42;11.20;;;5.80;;
60919;SDS011;59039;52.108;19.942;2023-05-07T04:40:08;12.10;;;5.70;;
60919;SDS011;59039;52.108;19.942;2023-05-07T04:42:33;8.80;;;5.20;;
60919;SDS011;59039;52.108;19.942;2023-05-07T04:44:59;12.50;;;6.40;;
60919;SDS011;59039;52.108;19.942;2023-05-07T04:47:33;9.50;;;5.70;;
60919;SDS011;59039;52.108;19.942;2023-05-07T04:49:58;11.10;;;6.20;;
60919;SDS011;59039;52.108;19.942;2023-05-07T04:52:24;9.90;;;5.40;;
60919;SDS011;59039;52.108;19.942;2023-05-07T04:54:49;11.50;;;6.80;;
60919;SDS011;59039;52.108;19.942;2023-05-07T04:57:14;9.10;;;5.60;;
60919;SDS011;59039;52.108;19.942;2023-05-07T04:59:40;13.90;;;6.80;;
60919;SDS011;59039;52.108;19.942;2023-05-07T05:02:05;10.40;;;6.00;;
60919;SDS011;59039;52.108;19.942;2023-05-07T05:04:30;10.50;;;6.00;;
60919;SDS011;59039;52.108;19.942;2023-05-07T05:06:56;8.40;;;5.00;;
60919;SDS011;59039;52.108;19.942;2023-05-07T05:09:21;10.00;;;5.50;;
60919;SDS011;59039;52.108;19.942;2023-05-07T05:11:47;11.50;;;7.00;;
60919;SDS011;59039;52.108;19.942;2023-05-07T05:14:12;12.20;;;6.30;;
60919;SDS011;59039;52.108;19.942;2023-05-07T05:16:37;9.60;;;6.10;;
60919;SDS011;59039;52.108;19.942;2023-05-07T05:19:03;11.60;;;5.90;;
60919;SDS011;59039;52.108;19.942;2023-05-07T05:21:37;11.00;;;5.90;;
60919;SDS011;59039;52.108;19.942;2023-05-07T05:24:02;11.80;;;6.20;;
60919;SDS011;59039;52.108;19.942;2023-05-07T05:26:30;10.50;;;5.50;;
60919;SDS011;59039;52.108;19.942;2023-05-07T05:28:56;10.60;;;6.00;;
60919;SDS011;59039;52.108;19.942;2023-05-07T05:31:21;11.50;;;6.10;;
60919;SDS011;59039;52.108;19.942;2023-05-07T05:33:46;10.20;;;6.40;;
60919;SDS011;59039;52.108;19.942;2023-05-07T05:36:12;10.00;;;5.60;;
60919;SDS011;59039;52.108;19.942;2023-05-07T05:38:37;11.80;;;6.80;;
60919;SDS011;59039;52.108;19.942;2023-05-07T05:41:02;12.60;;;7.50;;
60919;SDS011;59039;52.108;19.942;2023-05-07T05:43:28;9.50;;;5.30;;
60919;SDS011;59039;52.108;19.942;2023-05-07T05:45:55;9.20;;;5.80;;
60919;SDS011;59039;52.108;19.942;2023-05-07T05:48:20;11.60;;;6.20;;
60919;SDS011;59039;52.108;19.942;2023-05-07T05:50:46;13.10;;;6.80;;
60919;SDS011;59039;52.108;19.942;2023-05-07T05:53:11;8.90;;;5.70;;
60919;SDS011;59039;52.108;19.942;2023-05-07T05:55:36;12.70;;;6.60;;
60919;SDS011;59039;52.108;19.942;2023-05-07T05:58:02;10.60;;;6.20;;
60919;SDS011;59039;52.108;19.942;2023-05-07T06:00:28;9.10;;;5.30;;
60919;SDS011;59039;52.108;19.942;2023-05-07T06:02:54;14.80;;;5.60;;
60919;SDS011;59039;52.108;19.942;2023-05-07T06:05:20;9.80;;;5.90;;
60919;SDS011;59039;52.108;19.942;2023-05-07T06:07:45;11.90;;;6.50;;
60919;SDS011;59039;52.108;19.942;2023-05-07T06:10:10;10.50;;;5.40;;
60919;SDS011;59039;52.108;19.942;2023-05-07T06:12:35;9.30;;;5.10;;
60919;SDS011;59039;52.108;19.942;2023-05-07T06:15:01;10.60;;;6.30;;
60919;SDS011;59039;52.108;19.942;2023-05-07T06:17:26;8.30;;;4.40;;
60919;SDS011;59039;52.108;19.942;2023-05-07T06:19:52;8.70;;;5.10;;
60919;SDS011;59039;52.108;19.942;2023-05-07T06:22:17;13.10;;;7.20;;
60919;SDS011;59039;52.108;19.942;2023-05-07T06:24:43;9.00;;;5.80;;
60919;SDS011;59039;52.108;19.942;2023-05-07T06:27:08;10.20;;;5.60;;
60919;SDS011;59039;52.108;19.942;2023-05-07T06:29:33;10.10;;;6.30;;
60919;SDS011;59039;52.108;19.942;2023-05-07T06:32:12;8.60;;;5.80;;
60919;SDS011;59039;52.108;19.942;2023-05-07T06:34:39;8.90;;;6.10;;
60919;SDS011;59039;52.108;19.942;2023-05-07T06:37:05;12.60;;;6.80;;
60919;SDS011;59039;52.108;19.942;2023-05-07T06:39:32;9.30;;;6.00;;
60919;SDS011;59039;52.108;19.942;2023-05-07T06:41:58;13.20;;;7.40;;
60919;SDS011;59039;52.108;19.942;2023-05-07T06:44:25;12.90;;;8.00;;
60919;SDS011;59039;52.108;19.942;2023-05-07T06:46:50;9.30;;;6.60;;
60919;SDS011;59039;52.108;19.942;2023-05-07T06:49:16;11.50;;;6.80;;
60919;SDS011;59039;52.108;19.942;2023-05-07T06:51:41;10.70;;;6.60;;
60919;SDS011;59039;52.108;19.942;2023-05-07T06:54:09;11.70;;;7.40;;
60919;SDS011;59039;52.108;19.942;2023-05-07T06:56:34;10.90;;;6.70;;
60919;SDS011;59039;52.108;19.942;2023-05-07T06:59:00;12.80;;;8.20;;
60919;SDS011;59039;52.108;19.942;2023-05-07T07:01:27;14.60;;;6.50;;
60919;SDS011;59039;52.108;19.942;2023-05-07T07:03:53;11.90;;;6.60;;
60919;SDS011;59039;52.108;19.942;2023-05-07T07:06:18;14.60;;;7.90;;
60919;SDS011;59039;52.108;19.942;2023-05-07T07:08:44;9.90;;;6.90;;
60919;SDS011;59039;52.108;19.942;2023-05-07T07:11:09;12.30;;;8.50;;
60919;SDS011;59039;52.108;19.942;2023-05-07T07:13:35;17.50;;;11.30;;
60919;SDS011;59039;52.108;19.942;2023-05-07T07:16:00;25.00;;;11.40;;
60919;SDS011;59039;52.108;19.942;2023-05-07T07:18:25;15.50;;;9.60;;
60919;SDS011;59039;52.108;19.942;2023-05-07T07:20:51;16.20;;;8.90;;
60919;SDS011;59039;52.108;19.942;2023-05-07T07:23:16;18.20;;;12.60;;
60919;SDS011;59039;52.108;19.942;2023-05-07T07:25:41;17.10;;;10.70;;
60919;SDS011;59039;52.108;19.942;2023-05-07T07:28:07;14.80;;;9.20;;
60919;SDS011;59039;52.108;19.942;2023-05-07T07:30:32;13.40;;;7.80;;
60919;SDS011;59039;52.108;19.942;2023-05-07T07:32:58;15.00;;;8.30;;
60919;SDS011;59039;52.108;19.942;2023-05-07T07:35:23;10.90;;;6.50;;
60919;SDS011;59039;52.108;19.942;2023-05-07T07:37:48;10.10;;;6.40;;
60919;SDS011;59039;52.108;19.942;2023-05-07T07:40:14;10.60;;;6.50;;
60919;SDS011;59039;52.108;19.942;2023-05-07T07:42:39;11.10;;;5.90;;
60919;SDS011;59039;52.108;19.942;2023-05-07T07:45:04;9.40;;;6.60;;
60919;SDS011;59039;52.108;19.942;2023-05-07T07:47:30;9.60;;;5.40;;
60919;SDS011;59039;52.108;19.942;2023-05-07T07:49:56;8.00;;;5.20;;
60919;SDS011;59039;52.108;19.942;2023-05-07T07:52:21;10.40;;;6.40;;
60919;SDS011;59039;52.108;19.942;2023-05-07T07:54:46;12.20;;;7.80;;
60919;SDS011;59039;52.108;19.942;2023-05-07T07:57:11;9.30;;;6.20;;
60919;SDS011;59039;52.108;19.942;2023-05-07T07:59:40;7.60;;;5.50;;
60919;SDS011;59039;52.108;19.942;2023-05-07T08:02:05;7.40;;;5.50;;
60919;SDS011;59039;52.108;19.942;2023-05-07T08:04:31;10.40;;;7.20;;
60919;SDS011;59039;52.108;19.942;2023-05-07T08:06:56;16.00;;;8.60;;
60919;SDS011;59039;52.108;19.942;2023-05-07T08:09:21;9.10;;;6.70;;
60919;SDS011;59039;52.108;19.942;2023-05-07T08:11:46;11.40;;;7.40;;
60919;SDS011;59039;52.108;19.942;2023-05-07T08:14:12;11.20;;;7.20;;
60919;SDS011;59039;52.108;19.942;2023-05-07T08:16:37;11.70;;;7.30;;
60919;SDS011;59039;52.108;19.942;2023-05-07T08:19:02;11.80;;;6.90;;
60919;SDS011;59039;52.108;19.942;2023-05-07T08:21:28;13.40;;;8.20;;
60919;SDS011;59039;52.108;19.942;2023-05-07T08:23:53;12.90;;;7.60;;
60919;SDS011;59039;52.108;19.942;2023-05-07T08:26:18;13.70;;;6.90;;
60919;SDS011;59039;52.108;19.942;2023-05-07T08:28:44;13.20;;;6.60;;
60919;SDS011;59039;52.108;19.942;2023-05-07T08:31:09;7.30;;;5.70;;
60919;SDS011;59039;52.108;19.942;2023-05-07T08:33:34;12.30;;;9.10;;
60919;SDS011;59039;52.108;19.942;2023-05-07T08:36:00;16.10;;;11.70;;
60919;SDS011;59039;52.108;19.942;2023-05-07T08:38:25;10.00;;;6.70;;
60919;SDS011;59039;52.108;19.942;2023-05-07T08:40:50;9.10;;;6.20;;
60919;SDS011;59039;52.108;19.942;2023-05-07T08:43:16;7.10;;;5.80;;
60919;SDS011;59039;52.108;19.942;2023-05-07T08:45:43;8.30;;;6.90;;
60919;SDS011;59039;52.108;19.942;2023-05-07T08:48:19;8.70;;;6.20;;
60919;SDS011;59039;52.108;19.942;2023-05-07T08:50:49;10.10;;;8.00;;
60919;SDS011;59039;52.108;19.942;2023-05-07T08:53:15;12.10;;;7.50;;
60919;SDS011;59039;52.108;19.942;2023-05-07T08:55:41;9.00;;;7.30;;
60919;SDS011;59039;52.108;19.942;2023-05-07T08:58:07;12.30;;;5.70;;
60919;SDS011;59039;52.108;19.942;2023-05-07T09:00:32;14.80;;;8.00;;
60919;SDS011;59039;52.108;19.942;2023-05-07T09:02:57;10.60;;;6.60;;
60919;SDS011;59039;52.108;19.942;2023-05-07T09:05:23;7.60;;;5.70;;
60919;SDS011;59039;52.108;19.942;2023-05-07T09:07:48;8.20;;;5.90;;
60919;SDS011;59039;52.108;19.942;2023-05-07T09:10:13;9.80;;;5.50;;
60919;SDS011;59039;52.108;19.942;2023-05-07T09:12:39;8.10;;;5.50;;
60919;SDS011;59039;52.108;19.942;2023-05-07T09:15:05;7.80;;;5.20;;
60919;SDS011;59039;52.108;19.942;2023-05-07T09:17:31;9.30;;;5.80;;
60919;SDS011;59039;52.108;19.942;2023-05-07T09:20:01;7.40;;;5.70;;
60919;SDS011;59039;52.108;19.942;2023-05-07T09:22:27;8.40;;;6.10;;
60919;SDS011;59039;52.108;19.942;2023-05-07T09:24:53;8.50;;;6.10;;
60919;SDS011;59039;52.108;19.942;2023-05-07T09:27:18;11.00;;;6.00;;
60919;SDS011;59039;52.108;19.942;2023-05-07T09:29:44;9.60;;;5.90;;
60919;SDS011;59039;52.108;19.942;2023-05-07T09:32:09;7.50;;;5.70;;
60919;SDS011;59039;52.108;19.942;2023-05-07T09:34:35;9.30;;;5.90;;
60919;SDS011;59039;52.108;19.942;2023-05-07T09:37:01;10.00;;;7.30;;
60919;SDS011;59039;52.108;19.942;2023-05-07T09:39:37;11.60;;;7.40;;
60919;SDS011;59039;52.108;19.942;2023-05-07T09:42:07;10.30;;;6.60;;
60919;SDS011;59039;52.108;19.942;2023-05-07T09:44:33;9.20;;;7.20;;
60919;SDS011;59039;52.108;19.942;2023-05-07T09:46:59;10.20;;;7.60;;
60919;SDS011;59039;52.108;19.942;2023-05-07T09:49:27;9.80;;;6.70;;
60919;SDS011;59039;52.108;19.942;2023-05-07T09:51:54;9.80;;;6.70;;
60919;SDS011;59039;52.108;19.942;2023-05-07T09:54:21;11.30;;;6.70;;
60919;SDS011;59039;52.108;19.942;2023-05-07T09:56:47;10.90;;;7.70;;
60919;SDS011;59039;52.108;19.942;2023-05-07T09:59:14;8.30;;;6.00;;
60919;SDS011;59039;52.108;19.942;2023-05-07T10:01:41;11.90;;;7.00;;
60919;SDS011;59039;52.108;19.942;2023-05-07T10:04:08;8.20;;;6.10;;
60919;SDS011;59039;52.108;19.942;2023-05-07T10:06:35;10.70;;;7.80;;
60919;SDS011;59039;52.108;19.942;2023-05-07T10:09:01;11.50;;;7.80;;
60919;SDS011;59039;52.108;19.942;2023-05-07T10:11:27;10.70;;;7.30;;
60919;SDS011;59039;52.108;19.942;2023-05-07T10:13:53;13.10;;;7.60;;
60919;SDS011;59039;52.108;19.942;2023-05-07T10:16:19;13.60;;;8.40;;
60919;SDS011;59039;52.108;19.942;2023-05-07T10:18:46;15.00;;;8.80;;
60919;SDS011;59039;52.108;19.942;2023-05-07T10:21:18;11.30;;;7.10;;
60919;SDS011;59039;52.108;19.942;2023-05-07T10:23:45;11.60;;;7.40;;
60919;SDS011;59039;52.108;19.942;2023-05-07T10:26:14;10.70;;;7.40;;
60919;SDS011;59039;52.108;19.942;2023-05-07T10:28:43;12.30;;;7.60;;
60919;SDS011;59039;52.108;19.942;2023-05-07T10:34:15;8.60;;;6.40;;
60919;SDS011;59039;52.108;19.942;2023-05-07T10:36:45;9.50;;;6.50;;
60919;SDS011;59039;52.108;19.942;2023-05-07T10:39:11;10.30;;;7.50;;
60919;SDS011;59039;52.108;19.942;2023-05-07T10:41:36;10.60;;;7.50;;
60919;SDS011;59039;52.108;19.942;2023-05-07T10:44:02;10.30;;;7.70;;
60919;SDS011;59039;52.108;19.942;2023-05-07T10:46:27;10.70;;;7.40;;
60919;SDS011;59039;52.108;19.942;2023-05-07T10:51:27;10.10;;;6.10;;
60919;SDS011;59039;52.108;19.942;2023-05-07T10:54:39;15.00;;;7.40;;
60919;SDS011;59039;52.108;19.942;2023-05-07T10:56:39;10.20;;;7.60;;
60919;SDS011;59039;52.108;19.942;2023-05-07T11:01:50;7.90;;;6.30;;
60919;SDS011;59039;52.108;19.942;2023-05-07T11:04:19;8.80;;;5.40;;
60919;SDS011;59039;52.108;19.942;2023-05-07T11:07:09;9.30;;;6.40;;
60919;SDS011;59039;52.108;19.942;2023-05-07T11:17:32;23.70;;;11.70;;
60919;SDS011;59039;52.108;19.942;2023-05-07T11:19:57;20.90;;;10.20;;
60919;SDS011;59039;52.108;19.942;2023-05-07T11:25:00;12.30;;;6.10;;
60919;SDS011;59039;52.108;19.942;2023-05-07T11:27:29;10.20;;;6.20;;
60919;SDS011;59039;52.108;19.942;2023-05-07T11:29:55;10.30;;;5.70;;
60919;SDS011;59039;52.108;19.942;2023-05-07T11:32:30;14.00;;;6.60;;
60919;SDS011;59039;52.108;19.942;2023-05-07T11:34:57;10.30;;;5.70;;
60919;SDS011;59039;52.108;19.942;2023-05-07T11:37:24;10.70;;;6.60;;
60919;SDS011;59039;52.108;19.942;2023-05-07T11:39:51;12.10;;;6.80;;
60919;SDS011;59039;52.108;19.942;2023-05-07T11:42:29;10.80;;;6.00;;
60919;SDS011;59039;52.108;19.942;2023-05-07T11:44:55;7.90;;;5.90;;
60919;SDS011;59039;52.108;19.942;2023-05-07T11:47:21;8.60;;;5.60;;
60919;SDS011;59039;52.108;19.942;2023-05-07T11:49:50;10.90;;;6.50;;
60919;SDS011;59039;52.108;19.942;2023-05-07T11:52:17;9.10;;;5.90;;
60919;SDS011;59039;52.108;19.942;2023-05-07T11:54:50;8.20;;;5.30;;
60919;SDS011;59039;52.108;19.942;2023-05-07T11:57:16;10.70;;;6.10;;
60919;SDS011;59039;52.108;19.942;2023-05-07T11:59:42;13.20;;;5.40;;
60919;SDS011;59039;52.108;19.942;2023-05-07T12:02:07;9.70;;;5.40;;
60919;SDS011;59039;52.108;19.942;2023-05-07T12:04:33;8.20;;;5.20;;
60919;SDS011;59039;52.108;19.942;2023-05-07T12:06:58;11.30;;;6.30;;
60919;SDS011;59039;52.108;19.942;2023-05-07T12:09:24;6.50;;;5.20;;
60919;SDS011;59039;52.108;19.942;2023-05-07T12:11:49;7.70;;;5.20;;
60919;SDS011;59039;52.108;19.942;2023-05-07T12:14:16;9.30;;;5.40;;
60919;SDS011;59039;52.108;19.942;2023-05-07T12:16:41;7.70;;;4.60;;
60919;SDS011;59039;52.108;19.942;2023-05-07T12:19:08;11.50;;;6.10;;
60919;SDS011;59039;52.108;19.942;2023-05-07T12:21:34;7.60;;;5.30;;
60919;SDS011;59039;52.108;19.942;2023-05-07T12:24:01;10.00;;;6.70;;
60919;SDS011;59039;52.108;19.942;2023-05-07T12:26:26;7.40;;;4.90;;
60919;SDS011;59039;52.108;19.942;2023-05-07T12:28:52;9.00;;;4.80;;
60919;SDS011;59039;52.108;19.942;2023-05-07T12:31:17;11.50;;;6.20;;
60919;SDS011;59039;52.108;19.942;2023-05-07T12:33:43;9.00;;;5.40;;
60919;SDS011;59039;52.108;19.942;2023-05-07T12:36:08;7.80;;;5.10;;
60919;SDS011;59039;52.108;19.942;2023-05-07T12:38:34;8.00;;;5.10;;
60919;SDS011;59039;52.108;19.942;2023-05-07T12:41:01;8.70;;;5.20;;
60919;SDS011;59039;52.108;19.942;2023-05-07T12:43:27;7.30;;;5.70;;
60919;SDS011;59039;52.108;19.942;2023-05-07T12:45:54;14.90;;;5.60;;
60919;SDS011;59039;52.108;19.942;2023-05-07T12:48:21;8.90;;;5.70;;
60919;SDS011;59039;52.108;19.942;2023-05-07T12:50:50;8.40;;;5.90;;
60919;SDS011;59039;52.108;19.942;2023-05-07T12:53:16;9.30;;;6.30;;
60919;SDS011;59039;52.108;19.942;2023-05-07T12:55:45;7.00;;;4.70;;
60919;SDS011;59039;52.108;19.942;2023-05-07T12:58:19;8.30;;;5.40;;
60919;SDS011;59039;52.108;19.942;2023-05-07T13:00:50;8.30;;;4.90;;
60919;SDS011;59039;52.108;19.942;2023-05-07T13:03:25;8.70;;;5.70;;
60919;SDS011;59039;52.108;19.942;2023-05-07T13:05:55;7.80;;;6.00;;
60919;SDS011;59039;52.108;19.942;2023-05-07T13:08:26;9.50;;;5.80;;
60919;SDS011;59039;52.108;19.942;2023-05-07T13:10:57;7.50;;;5.50;;
60919;SDS011;59039;52.108;19.942;2023-05-07T13:13:23;7.70;;;5.40;;
60919;SDS011;59039;52.108;19.942;2023-05-07T13:15:49;7.80;;;5.30;;
60919;SDS011;59039;52.108;19.942;2023-05-07T13:18:35;7.00;;;4.50;;
60919;SDS011;59039;52.108;19.942;2023-05-07T13:21:00;7.80;;;5.00;;
60919;SDS011;59039;52.108;19.942;2023-05-07T13:23:26;8.60;;;5.30;;
60919;SDS011;59039;52.108;19.942;2023-05-07T13:25:52;7.20;;;5.10;;
60919;SDS011;59039;52.108;19.942;2023-05-07T13:28:17;7.60;;;5.00;;
60919;SDS011;59039;52.108;19.942;2023-05-07T13:30:43;6.40;;;4.60;;
60919;SDS011;59039;52.108;19.942;2023-05-07T13:33:08;7.70;;;4.90;;
60919;SDS011;59039;52.108;19.942;2023-05-07T13:35:34;31.70;;;16.30;;
60919;SDS011;59039;52.108;19.942;2023-05-07T13:38:00;19.10;;;8.10;;
60919;SDS011;59039;52.108;19.942;2023-05-07T13:40:25;19.50;;;8.30;;
60919;SDS011;59039;52.108;19.942;2023-05-07T13:42:51;7.90;;;5.20;;
60919;SDS011;59039;52.108;19.942;2023-05-07T13:45:17;6.90;;;5.00;;
60919;SDS011;59039;52.108;19.942;2023-05-07T13:47:43;9.20;;;6.60;;
60919;SDS011;59039;52.108;19.942;2023-05-07T13:50:11;8.70;;;5.50;;
60919;SDS011;59039;52.108;19.942;2023-05-07T13:52:45;8.30;;;5.50;;
60919;SDS011;59039;52.108;19.942;2023-05-07T13:55:10;7.40;;;5.50;;
60919;SDS011;59039;52.108;19.942;2023-05-07T13:57:36;8.20;;;5.00;;
60919;SDS011;59039;52.108;19.942;2023-05-07T14:00:02;9.50;;;5.90;;
60919;SDS011;59039;52.108;19.942;2023-05-07T14:02:28;7.40;;;5.10;;
60919;SDS011;59039;52.108;19.942;2023-05-07T14:04:54;8.20;;;5.00;;
60919;SDS011;59039;52.108;19.942;2023-05-07T14:09:52;7.70;;;4.50;;
60919;SDS011;59039;52.108;19.942;2023-05-07T14:12:17;6.60;;;3.90;;
60919;SDS011;59039;52.108;19.942;2023-05-07T14:14:42;10.40;;;5.10;;
60919;SDS011;59039;52.108;19.942;2023-05-07T14:17:07;10.40;;;5.70;;
60919;SDS011;59039;52.108;19.942;2023-05-07T14:19:40;7.40;;;5.00;;
60919;SDS011;59039;52.108;19.942;2023-05-07T14:22:06;8.20;;;4.70;;
60919;SDS011;59039;52.108;19.942;2023-05-07T14:24:31;9.20;;;4.60;;
60919;SDS011;59039;52.108;19.942;2023-05-07T14:26:57;8.40;;;5.20;;
60919;SDS011;59039;52.108;19.942;2023-05-07T14:29:22;8.50;;;4.80;;
60919;SDS011;59039;52.108;19.942;2023-05-07T14:31:47;8.00;;;4.40;;
60919;SDS011;59039;52.108;19.942;2023-05-07T14:34:12;30.80;;;13.30;;
60919;SDS011;59039;52.108;19.942;2023-05-07T14:36:38;10.90;;;5.50;;
60919;SDS011;59039;52.108;19.942;2023-05-07T14:39:03;8.40;;;5.20;;
60919;SDS011;59039;52.108;19.942;2023-05-07T14:41:29;8.40;;;4.40;;
60919;SDS011;59039;52.108;19.942;2023-05-07T14:43:54;10.20;;;5.80;;
60919;SDS011;59039;52.108;19.942;2023-05-07T14:46:29;8.40;;;5.00;;